createdAt,value
2017-11-17T00:00:49.837Z,75.20
2017-11-17T00:03:17.329Z,74.30
2017-11-17T00:05:44.840Z,74.40
2017-11-17T00:08:12.381Z,74.00
2017-11-17T00:10:39.992Z,73.80
2017-11-17T00:13:07.640Z,73.60
2017-11-17T00:15:35.207Z,72.70
2017-11-17T00:18:03.489Z,71.90
2017-11-17T00:20:31.764Z,72.30
2017-11-17T00:23:00.048Z,72.40
2017-11-17T00:25:28.354Z,71.90
2017-11-17T00:27:55.852Z,71.80
2017-11-17T00:30:23.353Z,72.40
2017-11-17T00:32:50.885Z,72.40
2017-11-17T00:35:19.193Z,73.70
2017-11-17T00:37:46.698Z,73.70
2017-11-17T00:40:14.193Z,72.20
2017-11-17T00:42:42.457Z,71.80
2017-11-17T00:45:10.758Z,71.80
2017-11-17T00:47:39.017Z,72.20
2017-11-17T00:50:07.326Z,72.10
2017-11-17T00:52:34.872Z,72.10
2017-11-17T00:55:02.367Z,72.30
2017-11-17T00:57:29.884Z,71.90
2017-11-17T00:59:57.389Z,71.90
2017-11-17T01:02:24.888Z,72.00
2017-11-17T01:04:53.190Z,72.00
2017-11-17T01:07:20.690Z,72.00
2017-11-17T01:09:48.185Z,72.60
2017-11-17T01:12:16.453Z,73.20
2017-11-17T01:14:44.720Z,73.20
2017-11-17T01:17:12.225Z,73.10
2017-11-17T01:19:39.726Z,72.80
2017-11-17T01:22:07.249Z,72.30
2017-11-17T01:24:34.769Z,72.10
2017-11-17T01:27:03.031Z,72.50
2017-11-17T01:29:31.344Z,73.50
2017-11-17T01:31:58.856Z,72.70
2017-11-17T01:34:27.123Z,73.20
2017-11-17T01:36:54.627Z,73.20
2017-11-17T01:39:22.141Z,73.30
2017-11-17T01:41:49.638Z,73.40
2017-11-17T01:44:17.897Z,73.00
2017-11-17T01:46:46.211Z,73.00
2017-11-17T01:49:13.733Z,73.00
2017-11-17T01:51:42.008Z,73.10
2017-11-17T01:54:10.268Z,74.20
2017-11-17T01:56:38.546Z,73.10
2017-11-17T01:59:06.050Z,73.20
2017-11-17T02:01:33.593Z,73.10
2017-11-17T02:04:01.901Z,72.90
2017-11-17T02:06:29.428Z,72.90
2017-11-17T02:08:56.941Z,72.90
2017-11-17T02:11:24.482Z,72.80
2017-11-17T02:13:52.009Z,72.20
2017-11-17T02:16:20.268Z,72.50
2017-11-17T02:18:48.545Z,72.50
2017-11-17T02:21:16.825Z,72.60
2017-11-17T02:23:45.101Z,72.40
2017-11-17T02:26:13.408Z,72.30
2017-11-17T02:28:40.921Z,72.30
2017-11-17T02:31:08.419Z,72.10
2017-11-17T02:33:35.923Z,72.20
2017-11-17T02:36:03.442Z,72.30
2017-11-17T02:38:30.956Z,72.10
2017-11-17T02:40:58.475Z,72.50
2017-11-17T02:43:25.977Z,72.30
2017-11-17T02:45:54.294Z,71.80
2017-11-17T02:48:21.798Z,71.70
2017-11-17T02:50:49.332Z,71.50
2017-11-17T02:53:16.849Z,71.50
2017-11-17T02:55:45.112Z,71.70
2017-11-17T02:58:13.384Z,71.40
2017-11-17T03:00:41.661Z,72.00
2017-11-17T03:03:09.969Z,71.70
2017-11-17T03:05:37.464Z,71.60
2017-11-17T03:08:04.961Z,71.80
2017-11-17T03:10:33.235Z,71.80
2017-11-17T03:13:01.513Z,71.80
2017-11-17T03:15:29.833Z,71.80
2017-11-17T03:17:57.360Z,71.70
2017-11-17T03:20:25.621Z,72.00
2017-11-17T03:22:53.917Z,72.00
2017-11-17T03:25:22.197Z,72.10
2017-11-17T03:27:49.712Z,72.00
2017-11-17T03:30:17.261Z,71.70
2017-11-17T03:32:44.773Z,71.50
2017-11-17T03:35:12.288Z,71.50
2017-11-17T03:37:39.797Z,71.60
2017-11-17T03:40:07.332Z,71.50
2017-11-17T03:42:35.598Z,71.40
2017-11-17T03:45:03.115Z,71.40
2017-11-17T03:47:30.639Z,71.60
2017-11-17T03:49:58.150Z,71.40
2017-11-17T03:52:25.661Z,71.40
2017-11-17T03:54:53.192Z,71.10
2017-11-17T03:57:20.729Z,70.90
2017-11-17T03:59:48.222Z,71.10
2017-11-17T04:02:16.483Z,71.30
2017-11-17T04:04:44.018Z,71.30
2017-11-17T04:07:11.533Z,71.30
2017-11-17T04:09:39.038Z,71.30
2017-11-17T04:12:06.539Z,71.40
2017-11-17T04:14:34.073Z,70.80
2017-11-17T04:17:01.570Z,71.00
2017-11-17T04:19:29.103Z,70.50
2017-11-17T04:21:57.365Z,70.40
2017-11-17T04:24:24.880Z,70.30
2017-11-17T04:26:52.388Z,70.70
2017-11-17T04:29:19.900Z,70.90
2017-11-17T04:31:47.424Z,70.80
2017-11-17T04:34:15.695Z,70.10
2017-11-17T04:36:43.960Z,70.10
2017-11-17T04:39:12.244Z,69.80
2017-11-17T04:41:40.513Z,69.70
2017-11-17T04:44:08.788Z,70.00
2017-11-17T04:46:37.094Z,70.00
2017-11-17T04:49:04.589Z,69.80
2017-11-17T04:51:32.108Z,69.80
2017-11-17T04:53:59.625Z,69.90
2017-11-17T04:56:27.125Z,70.20
2017-11-17T04:58:54.638Z,70.10
2017-11-17T05:01:22.141Z,70.00
2017-11-17T05:03:49.652Z,70.00
2017-11-17T05:06:17.181Z,69.70
2017-11-17T05:08:44.682Z,70.00
2017-11-17T05:11:12.221Z,70.10
2017-11-17T05:13:39.769Z,70.00
2017-11-17T05:16:07.280Z,69.80
2017-11-17T05:18:35.568Z,69.70
2017-11-17T05:21:03.078Z,69.60
2017-11-17T05:23:30.600Z,69.40
2017-11-17T05:25:58.097Z,69.60
2017-11-17T05:28:25.601Z,69.80
2017-11-17T05:30:53.124Z,70.10
2017-11-17T05:33:20.664Z,70.10
2017-11-17T05:35:48.168Z,70.00
2017-11-17T05:38:16.469Z,69.40
2017-11-17T05:40:43.984Z,69.40
2017-11-17T05:43:11.476Z,69.30
2017-11-17T05:45:38.977Z,69.50
2017-11-17T05:48:06.480Z,69.30
2017-11-17T05:50:34.741Z,69.30
2017-11-17T05:53:03.012Z,69.20
2017-11-17T05:55:30.547Z,69.20
2017-11-17T05:57:58.032Z,68.90
2017-11-17T06:00:26.348Z,69.30
2017-11-17T06:02:53.864Z,69.30
2017-11-17T06:05:21.364Z,69.50
2017-11-17T06:07:49.053Z,69.10
2017-11-17T06:10:16.560Z,68.80
2017-11-17T06:12:44.853Z,68.70
2017-11-17T06:15:12.353Z,68.70
2017-11-17T06:17:39.867Z,68.40
2017-11-17T06:20:07.361Z,68.90
2017-11-17T06:22:34.909Z,68.50
2017-11-17T06:25:02.423Z,68.80
2017-11-17T06:27:30.692Z,68.60
2017-11-17T06:29:58.185Z,68.60
2017-11-17T06:32:25.701Z,69.00
2017-11-17T06:34:53.206Z,68.90
2017-11-17T06:37:20.706Z,68.30
2017-11-17T06:39:48.236Z,68.10
2017-11-17T06:42:15.762Z,67.90
2017-11-17T06:44:44.033Z,68.80
2017-11-17T06:47:12.297Z,68.90
2017-11-17T06:49:40.564Z,68.90
2017-11-17T06:52:08.099Z,68.90
2017-11-17T06:54:35.608Z,68.90
2017-11-17T06:57:03.877Z,68.90
2017-11-17T06:59:32.145Z,69.40
2017-11-17T07:02:00.416Z,69.60
2017-11-17T07:04:28.696Z,68.90
2017-11-17T07:06:57.049Z,68.90
2017-11-17T07:09:24.544Z,68.90
2017-11-17T07:11:52.808Z,69.30
2017-11-17T07:14:21.096Z,69.40
2017-11-17T07:16:49.369Z,68.70
2017-11-17T07:19:17.649Z,69.00
2017-11-17T07:21:45.925Z,68.50
2017-11-17T07:24:14.212Z,68.60
2017-11-17T07:26:41.713Z,68.60
2017-11-17T07:29:09.262Z,68.10
2017-11-17T07:31:36.760Z,67.80
2017-11-17T07:34:04.257Z,67.50
2017-11-17T07:36:31.770Z,68.00
2017-11-17T07:38:59.301Z,67.70
2017-11-17T07:41:26.797Z,67.60
2017-11-17T07:43:55.077Z,67.20
2017-11-17T07:46:23.380Z,66.20
2017-11-17T07:48:50.889Z,66.10
2017-11-17T07:51:18.406Z,66.90
2017-11-17T07:53:45.953Z,66.20
2017-11-17T07:56:13.497Z,66.70
2017-11-17T07:58:41.944Z,66.00
2017-11-17T08:01:09.440Z,66.00
2017-11-17T08:03:37.723Z,66.30
2017-11-17T08:06:05.239Z,66.30
2017-11-17T08:11:25.792Z,66.30
2017-11-17T08:13:54.077Z,66.70
2017-11-17T08:16:21.581Z,66.70
2017-11-17T08:18:49.108Z,66.70
2017-11-17T08:21:16.610Z,66.40
2017-11-17T08:23:44.277Z,66.80
2017-11-17T08:26:11.862Z,66.60
2017-11-17T08:28:40.121Z,66.90
2017-11-17T08:31:07.627Z,66.90
2017-11-17T08:33:35.157Z,66.40
2017-11-17T08:36:03.421Z,66.60
2017-11-17T08:38:31.690Z,66.20
2017-11-17T08:40:59.207Z,66.10
2017-11-17T08:46:00.561Z,66.90
2017-11-17T08:48:28.081Z,67.20
2017-11-17T08:50:56.391Z,67.30
2017-11-17T08:53:23.921Z,67.30
2017-11-17T08:55:52.201Z,67.60
2017-11-17T08:58:20.489Z,67.60
2017-11-17T09:00:47.984Z,67.60
2017-11-17T09:03:15.484Z,67.90
2017-11-17T09:05:43.773Z,68.00
2017-11-17T09:08:12.044Z,68.00
2017-11-17T09:10:40.340Z,68.70
2017-11-17T09:13:07.861Z,68.70
2017-11-17T09:15:35.356Z,69.10
2017-11-17T09:18:02.868Z,68.80
2017-11-17T09:20:30.389Z,69.50
2017-11-17T09:22:57.944Z,69.40
2017-11-17T09:25:25.481Z,69.70
2017-11-17T09:27:53.745Z,69.50
2017-11-17T09:30:22.017Z,69.70
2017-11-17T09:32:50.331Z,70.10
2017-11-17T09:35:17.848Z,70.00
2017-11-17T09:37:45.346Z,70.00
2017-11-17T09:40:12.844Z,69.40
2017-11-17T09:42:40.348Z,69.50
2017-11-17T09:45:08.611Z,69.60
2017-11-17T09:47:36.893Z,69.80
2017-11-17T09:50:05.191Z,70.10
2017-11-17T09:52:32.696Z,70.10
2017-11-17T09:55:00.193Z,69.90
2017-11-17T09:57:27.692Z,69.30
2017-11-17T09:59:55.227Z,69.80
2017-11-17T10:02:22.762Z,70.00
2017-11-17T10:04:51.050Z,70.00
2017-11-17T10:07:18.549Z,69.90
2017-11-17T10:09:46.161Z,70.20
2017-11-17T10:12:14.435Z,70.20
2017-11-17T10:14:42.697Z,70.10
2017-11-17T10:17:10.960Z,70.30
2017-11-17T10:19:38.461Z,70.20
2017-11-17T10:22:05.972Z,70.10
2017-11-17T10:24:34.077Z,69.60
2017-11-17T10:27:02.337Z,69.60
2017-11-17T10:29:30.606Z,69.50
2017-11-17T10:31:58.112Z,69.50
2017-11-17T10:34:25.641Z,70.20
2017-11-17T10:36:53.924Z,69.70
2017-11-17T10:39:22.212Z,69.60
2017-11-17T10:41:49.704Z,69.60
2017-11-17T10:44:17.229Z,69.50
2017-11-17T10:46:44.756Z,69.10
2017-11-17T10:49:12.257Z,69.50
2017-11-17T10:51:39.784Z,69.30
2017-11-17T10:54:08.045Z,69.10
2017-11-17T10:56:35.546Z,69.10
2017-11-17T10:59:04.858Z,69.10
2017-11-17T11:01:32.388Z,68.90
2017-11-17T11:04:00.677Z,68.40
2017-11-17T11:06:28.197Z,68.40
2017-11-17T11:08:55.689Z,68.40
2017-11-17T11:11:28.861Z,68.20
2017-11-17T11:13:57.125Z,68.70
2017-11-17T11:16:25.397Z,68.40
2017-11-17T11:18:52.912Z,68.30
2017-11-17T11:21:20.413Z,68.00
2017-11-17T11:23:47.918Z,68.10
2017-11-17T11:26:15.445Z,67.70
2017-11-17T11:28:43.708Z,67.20
2017-11-17T11:31:11.209Z,67.20
2017-11-17T11:33:38.721Z,67.40
2017-11-17T11:36:06.241Z,67.00
2017-11-17T11:38:33.757Z,67.20
2017-11-17T11:41:02.053Z,67.20
2017-11-17T11:43:29.581Z,67.10
2017-11-17T11:45:57.072Z,67.10
2017-11-17T11:48:24.572Z,67.70
2017-11-17T11:50:52.070Z,67.00
2017-11-17T11:53:20.353Z,66.70
2017-11-17T11:55:47.865Z,66.70
2017-11-17T11:58:15.364Z,66.80
2017-11-17T12:00:43.629Z,67.10
2017-11-17T12:03:11.924Z,66.80
2017-11-17T12:05:40.193Z,66.30
2017-11-17T12:08:08.480Z,66.80
2017-11-17T12:10:35.990Z,66.70
2017-11-17T12:13:03.520Z,66.90
2017-11-17T12:15:31.021Z,66.60
2017-11-17T12:17:58.559Z,66.80
2017-11-17T12:20:26.084Z,66.90
2017-11-17T12:22:53.598Z,67.20
2017-11-17T12:25:21.141Z,67.60
2017-11-17T12:27:48.677Z,67.30
2017-11-17T12:30:16.177Z,67.20
2017-11-17T12:32:43.685Z,67.40
2017-11-17T12:35:11.204Z,67.20
2017-11-17T12:37:39.476Z,65.60
2017-11-17T12:40:06.977Z,65.60
2017-11-17T12:42:34.500Z,65.40
2017-11-17T12:45:02.765Z,66.70
2017-11-17T12:47:30.267Z,66.70
2017-11-17T12:49:57.792Z,66.60
2017-11-17T12:52:26.057Z,66.60
2017-11-17T12:54:53.556Z,66.60
2017-11-17T12:57:21.074Z,66.30
2017-11-17T12:59:48.589Z,66.50
2017-11-17T13:02:16.108Z,67.10
2017-11-17T13:04:44.376Z,68.10
2017-11-17T13:07:12.645Z,68.20
2017-11-17T13:09:40.153Z,68.20
2017-11-17T13:12:07.668Z,67.70
2017-11-17T13:14:35.936Z,68.10
2017-11-17T13:17:03.478Z,68.10
2017-11-17T13:19:30.998Z,67.80
2017-11-17T13:21:58.508Z,67.60
2017-11-17T13:24:26.033Z,67.70
2017-11-17T13:26:53.545Z,68.10
2017-11-17T13:29:21.813Z,68.70
2017-11-17T13:31:50.104Z,69.00
2017-11-17T13:34:18.377Z,68.70
2017-11-17T13:36:46.640Z,68.50
2017-11-17T13:39:14.161Z,68.50
2017-11-17T13:41:41.665Z,68.90
2017-11-17T13:44:09.949Z,68.80
2017-11-17T13:46:38.220Z,69.40
2017-11-17T13:49:06.481Z,69.40
2017-11-17T13:51:34.009Z,69.40
2017-11-17T13:54:01.529Z,69.20
2017-11-17T13:56:29.072Z,68.90
2017-11-17T13:58:57.361Z,68.90
2017-11-17T14:01:25.660Z,69.10
2017-11-17T14:03:53.153Z,69.10
2017-11-17T14:06:20.657Z,69.30
2017-11-17T14:08:48.934Z,68.90
2017-11-17T14:11:16.447Z,68.90
2017-11-17T14:13:43.940Z,69.40
2017-11-17T14:16:12.225Z,69.50
2017-11-17T14:18:40.491Z,69.50
2017-11-17T14:21:08.768Z,69.50
2017-11-17T14:23:37.033Z,69.60
2017-11-17T14:26:05.324Z,70.10
2017-11-17T14:28:33.585Z,70.30
2017-11-17T14:31:01.082Z,70.20
2017-11-17T14:33:28.584Z,70.60
2017-11-17T14:35:56.100Z,70.70
2017-11-17T14:38:23.632Z,70.70
2017-11-17T14:40:51.896Z,71.10
2017-11-17T14:43:20.174Z,70.80
2017-11-17T14:45:48.465Z,71.20
2017-11-17T14:48:16.733Z,71.30
2017-11-17T14:50:45.019Z,71.20
2017-11-17T14:53:12.544Z,71.20
2017-11-17T14:55:41.556Z,71.70
2017-11-17T14:58:09.840Z,71.70
2017-11-17T15:00:38.124Z,72.00
2017-11-17T15:03:06.393Z,71.90
2017-11-17T15:05:34.660Z,71.90
2017-11-17T15:08:02.931Z,72.20
2017-11-17T15:10:30.449Z,72.20
2017-11-17T15:12:57.957Z,71.90
2017-11-17T15:15:26.249Z,71.70
2017-11-17T15:17:54.515Z,71.60
2017-11-17T15:20:22.801Z,72.00
2017-11-17T15:22:51.068Z,72.30
2017-11-17T15:25:19.337Z,72.50
2017-11-17T15:27:47.629Z,72.50
2017-11-17T15:30:15.919Z,72.60
2017-11-17T15:32:43.437Z,72.60
2017-11-17T15:35:12.470Z,72.70
2017-11-17T15:37:39.985Z,72.60
2017-11-17T15:40:07.484Z,72.90
2017-11-17T15:42:34.997Z,72.60
2017-11-17T15:45:04.047Z,73.10
2017-11-17T15:47:31.568Z,73.00
2017-11-17T15:49:59.838Z,72.80
2017-11-17T15:52:27.384Z,72.80
2017-11-17T15:54:54.852Z,72.60
2017-11-17T15:57:22.393Z,72.90
2017-11-17T15:59:49.906Z,73.10
2017-11-17T16:02:17.448Z,74.10
2017-11-17T16:04:45.740Z,73.30
2017-11-17T16:07:13.248Z,73.30
2017-11-17T16:09:40.754Z,73.20
2017-11-17T16:12:09.037Z,72.90
2017-11-17T16:14:36.538Z,72.90
2017-11-17T16:17:04.053Z,73.30
2017-11-17T16:19:31.557Z,73.40
2017-11-17T16:21:59.057Z,73.30
2017-11-17T16:24:27.332Z,73.10
2017-11-17T16:26:55.631Z,73.50
2017-11-17T16:29:23.129Z,73.40
2017-11-17T16:31:50.625Z,73.60
2017-11-17T16:34:18.904Z,73.60
2017-11-17T16:36:47.189Z,73.80
2017-11-17T16:39:14.692Z,74.60
2017-11-17T16:41:42.192Z,73.90
2017-11-17T16:44:10.456Z,74.40
2017-11-17T16:46:37.961Z,74.40
2017-11-17T16:49:05.460Z,74.60
2017-11-17T16:51:32.981Z,74.30
2017-11-17T16:54:00.493Z,74.30
2017-11-17T16:56:28.776Z,73.80
2017-11-17T16:58:57.057Z,73.90
2017-11-17T17:01:25.338Z,74.20
2017-11-17T17:03:53.627Z,74.10
2017-11-17T17:06:21.153Z,74.10
2017-11-17T17:08:49.436Z,74.00
2017-11-17T17:11:17.703Z,74.00
2017-11-17T17:13:45.221Z,74.00
2017-11-17T17:16:12.717Z,74.20
2017-11-17T17:18:40.232Z,74.40
2017-11-17T17:21:07.874Z,74.50
2017-11-17T17:23:35.379Z,74.70
2017-11-17T17:26:02.903Z,74.70
2017-11-17T17:28:30.401Z,75.10
2017-11-17T17:30:57.919Z,75.20
2017-11-17T17:33:25.436Z,75.00
2017-11-17T17:35:52.935Z,75.00
2017-11-17T17:38:20.482Z,75.00
2017-11-17T17:40:48.744Z,75.90
2017-11-17T17:43:17.005Z,76.00
2017-11-17T17:45:45.273Z,76.60
2017-11-17T17:48:13.652Z,76.70
2017-11-17T17:50:41.158Z,76.70
2017-11-17T17:53:08.665Z,77.30
2017-11-17T17:55:36.197Z,77.60
2017-11-17T17:58:03.693Z,78.20
2017-11-17T18:00:31.197Z,78.20
2017-11-17T18:02:58.724Z,78.80
2017-11-17T18:05:27.019Z,78.40
2017-11-17T18:07:54.532Z,78.40
2017-11-17T18:10:22.049Z,78.70
2017-11-17T18:12:49.568Z,80.00
2017-11-17T18:15:17.833Z,81.00
2017-11-17T18:17:45.356Z,81.00
2017-11-17T18:20:12.873Z,81.30
2017-11-17T18:22:41.140Z,82.00
2017-11-17T18:25:09.416Z,82.30
2017-11-17T18:27:37.698Z,82.80
2017-11-17T18:30:05.997Z,83.00
2017-11-17T18:32:33.520Z,83.00
2017-11-17T18:35:01.791Z,83.50
2017-11-17T18:37:29.300Z,83.40
2017-11-17T18:39:56.808Z,83.60
2017-11-17T18:42:25.128Z,84.60
2017-11-17T18:44:53.388Z,84.10
2017-11-17T18:47:21.654Z,84.20
2017-11-17T18:49:49.992Z,84.70
2017-11-17T18:52:17.452Z,84.80
2017-11-17T18:54:44.948Z,85.10
2017-11-17T18:57:13.220Z,84.90
2017-11-17T18:59:41.500Z,84.50
2017-11-17T19:02:09.815Z,84.70
2017-11-17T19:04:38.092Z,84.90
2017-11-17T19:07:05.588Z,84.90
2017-11-17T19:09:33.093Z,85.10
2017-11-17T19:12:00.592Z,85.10
2017-11-17T19:14:28.089Z,84.80
2017-11-17T19:16:56.386Z,84.70
2017-11-17T19:19:23.881Z,84.70
2017-11-17T19:21:51.377Z,84.50
2017-11-17T19:24:19.644Z,85.00
2017-11-17T19:26:47.147Z,85.00
2017-11-17T19:29:14.660Z,86.20
2017-11-17T19:31:42.163Z,85.20
2017-11-17T19:34:09.669Z,85.00
2017-11-17T19:36:37.168Z,85.20
2017-11-17T19:39:04.681Z,85.50
2017-11-17T19:41:32.184Z,85.30
2017-11-17T19:43:59.693Z,84.80
2017-11-17T19:46:27.194Z,84.90
2017-11-17T19:48:54.721Z,85.50
2017-11-17T19:51:22.225Z,85.40
2017-11-17T19:53:49.741Z,85.60
2017-11-17T19:56:17.247Z,85.90
2017-11-17T19:58:44.786Z,85.50
2017-11-17T20:01:12.354Z,86.00
2017-11-17T20:03:39.819Z,85.50
2017-11-17T20:06:07.334Z,86.00
2017-11-17T20:08:36.797Z,86.50
2017-11-17T20:11:04.779Z,86.50
2017-11-17T20:13:32.280Z,86.60
2017-11-17T20:16:00.553Z,86.80
2017-11-17T20:18:28.829Z,86.90
2017-11-17T20:20:57.110Z,87.80
2017-11-17T20:23:25.377Z,87.80
2017-11-17T20:25:53.660Z,87.70
2017-11-17T20:28:21.929Z,87.70
2017-11-17T20:30:49.461Z,87.60
2017-11-17T20:33:16.981Z,87.30
2017-11-17T20:35:44.489Z,87.60
2017-11-17T20:38:12.008Z,87.60
2017-11-17T20:40:39.505Z,87.80
2017-11-17T20:43:07.023Z,87.30
2017-11-17T20:45:34.546Z,87.30
2017-11-17T20:48:02.815Z,87.60
2017-11-17T20:50:30.321Z,87.60
2017-11-17T20:52:58.692Z,87.70
2017-11-17T20:55:26.193Z,88.00
2017-11-17T20:57:54.517Z,87.90
2017-11-17T21:00:22.012Z,87.30
2017-11-17T21:02:49.520Z,87.40
2017-11-17T21:05:17.796Z,87.30
2017-11-17T21:07:46.073Z,87.50
2017-11-17T21:10:14.341Z,86.90
2017-11-17T21:12:42.621Z,87.00
2017-11-17T21:15:10.882Z,86.70
2017-11-17T21:17:38.384Z,87.40
2017-11-17T21:20:05.900Z,86.90
2017-11-17T21:22:33.417Z,86.90
2017-11-17T21:25:00.918Z,86.80
2017-11-17T21:27:28.418Z,87.10
2017-11-17T21:29:55.930Z,86.80
2017-11-17T21:32:23.453Z,87.00
2017-11-17T21:34:50.953Z,87.00
2017-11-17T21:37:18.455Z,86.50
2017-11-17T21:39:45.980Z,86.30
2017-11-17T21:42:14.262Z,85.90
2017-11-17T21:44:42.534Z,86.20
2017-11-17T21:47:10.817Z,86.20
2017-11-17T21:49:39.100Z,86.20
2017-11-17T21:52:07.383Z,86.30
2017-11-17T21:54:34.896Z,86.20
2017-11-17T21:57:02.400Z,86.40
2017-11-17T21:59:29.914Z,86.20
2017-11-17T22:01:57.409Z,86.50
2017-11-17T22:04:25.669Z,86.80
2017-11-17T22:06:53.941Z,87.10
2017-11-17T22:09:22.216Z,86.90
2017-11-17T22:11:49.732Z,86.90
2017-11-17T22:14:17.249Z,87.20
2017-11-17T22:16:45.516Z,86.20
2017-11-17T22:19:13.787Z,86.30
2017-11-17T22:21:42.064Z,86.20
2017-11-17T22:24:10.354Z,86.20
2017-11-17T22:26:38.616Z,86.40
2017-11-17T22:29:06.116Z,86.40
2017-11-17T22:31:33.641Z,86.60
2017-11-17T22:34:01.909Z,86.70
2017-11-17T22:36:29.420Z,86.70
2017-11-17T22:38:56.921Z,86.20
2017-11-17T22:41:24.433Z,86.40
2017-11-17T22:43:51.944Z,86.10
2017-11-17T22:46:20.221Z,86.30
2017-11-17T22:48:48.488Z,86.00
2017-11-17T22:51:15.986Z,86.00
2017-11-17T22:53:43.488Z,86.00
2017-11-17T22:56:10.985Z,86.30
2017-11-17T22:58:38.494Z,85.80
2017-11-17T23:01:06.009Z,85.80
2017-11-17T23:03:33.509Z,86.10
2017-11-17T23:06:01.021Z,85.80
2017-11-17T23:08:29.380Z,86.20
2017-11-17T23:10:58.185Z,86.10
2017-11-17T23:13:26.448Z,86.10
2017-11-17T23:15:54.722Z,86.90
2017-11-17T23:18:22.222Z,86.80
2017-11-17T23:20:49.733Z,86.80
2017-11-17T23:23:17.250Z,86.50
2017-11-17T23:25:44.769Z,86.50
2017-11-17T23:28:13.032Z,86.80
2017-11-17T23:30:40.525Z,86.70
2017-11-17T23:33:08.029Z,86.80
2017-11-17T23:35:35.533Z,86.60
2017-11-17T23:38:03.037Z,86.60
2017-11-17T23:40:30.561Z,86.40
2017-11-17T23:42:58.061Z,86.20
2017-11-17T23:45:25.564Z,86.40
2017-11-17T23:47:53.080Z,87.00
2017-11-17T23:50:20.599Z,86.70
2017-11-17T23:52:48.101Z,86.30
2017-11-17T23:55:15.624Z,86.20
2017-11-17T23:57:43.142Z,86.50
